Time;durP1;ratioP1;P1;durP2;ratioP2;P2;SDS_P1;SDS_P2;PMS_P1;PMS_P2;Temp;Humidity;BMP_temperature;BMP_pressure;BME280_temperature;BME280_humidity;BME280_pressure;Samples;Min_cycle;Max_cycle;Signal;HPM_P1;HPM_P2
2022/06/11 00:00:02;;;;;;;9.53;6.53;;;;;;;;;;5005547;28;20392;-86
2022/06/11 00:02:28;;;;;;;13.17;6.53;;;;;;;;;;5005165;28;20411;-86
2022/06/11 00:04:54;;;;;;;11.43;6.43;;;;;;;;;;5006025;28;20495;-86
2022/06/11 00:07:21;;;;;;;8.40;6.00;;;;;;;;;;5005745;28;20423;-86
2022/06/11 00:09:48;;;;;;;9.67;6.73;;;;;;;;;;5006397;28;20897;-86
2022/06/11 00:12:14;;;;;;;8.50;6.77;;;;;;;;;;5016932;28;20446;-85
2022/06/11 00:14:42;;;;;;;7.60;6.60;;;;;;;;;;5000390;28;20428;-85
2022/06/11 00:17:09;;;;;;;8.80;7.27;;;;;;;;;;5004227;28;20452;-85
2022/06/11 00:19:36;;;;;;;9.17;7.27;;;;;;;;;;5012347;28;20496;-86
2022/06/11 00:22:03;;;;;;;7.40;6.63;;;;;;;;;;5014817;28;20396;-85
2022/06/11 00:24:29;;;;;;;8.50;6.73;;;;;;;;;;4997806;28;20425;-86
2022/06/11 00:26:56;;;;;;;8.67;6.20;;;;;;;;;;4997812;28;20456;-84
2022/06/11 00:29:24;;;;;;;6.93;5.97;;;;;;;;;;4997670;28;20449;-85
2022/06/11 00:31:50;;;;;;;8.90;6.60;;;;;;;;;;4989726;28;20433;-86
2022/06/11 00:34:16;;;;;;;10.60;6.43;;;;;;;;;;4988956;28;20461;-86
2022/06/11 00:36:43;;;;;;;13.20;6.93;;;;;;;;;;5003484;28;20420;-88
2022/06/11 00:39:10;;;;;;;6.60;5.90;;;;;;;;;;4990273;28;20420;-85
2022/06/11 00:41:37;;;;;;;7.60;6.50;;;;;;;;;;5005996;28;20401;-86
2022/06/11 00:44:04;;;;;;;7.03;6.23;;;;;;;;;;4995273;28;20513;-86
2022/06/11 00:46:49;;;;;;;8.27;6.90;;;;;;;;;;4990574;28;20492;-86
2022/06/11 00:49:24;;;;;;;9.27;6.73;;;;;;;;;;4989974;28;20519;-86
2022/06/11 00:51:56;;;;;;;12.00;6.90;;;;;;;;;;4990875;28;20439;-85
2022/06/11 00:54:24;;;;;;;7.77;6.37;;;;;;;;;;4990815;28;20425;-86
2022/06/11 00:56:52;;;;;;;7.90;6.50;;;;;;;;;;5006631;28;20499;-85
2022/06/11 00:59:22;;;;;;;8.77;5.93;;;;;;;;;;5009972;28;20442;-85
2022/06/11 01:01:48;;;;;;;9.47;7.70;;;;;;;;;;5010112;28;20547;-85
2022/06/11 01:04:50;;;;;;;10.13;6.50;;;;;;;;;;5003424;28;20503;-86
2022/06/11 01:07:34;;;;;;;8.97;6.57;;;;;;;;;;4915177;29;20431;-86
2022/06/11 01:10:03;;;;;;;10.60;7.17;;;;;;;;;;4984365;28;20433;-85
2022/06/11 01:12:37;;;;;;;7.30;5.83;;;;;;;;;;4990460;28;20473;-86
2022/06/11 01:15:10;;;;;;;7.20;6.50;;;;;;;;;;4989077;28;20815;-86
2022/06/11 01:17:45;;;;;;;7.13;5.70;;;;;;;;;;4989730;28;20400;-87
2022/06/11 01:20:12;;;;;;;11.53;6.67;;;;;;;;;;4992024;28;20419;-86
2022/06/11 01:22:54;;;;;;;10.33;7.20;;;;;;;;;;5007609;28;20407;-86
2022/06/11 01:25:32;;;;;;;13.10;7.13;;;;;;;;;;4991100;28;20433;-86
2022/06/11 01:28:17;;;;;;;8.20;6.53;;;;;;;;;;5008650;28;20494;-86
2022/06/11 01:30:48;;;;;;;11.30;6.73;;;;;;;;;;5007562;28;20404;-86
2022/06/11 01:33:29;;;;;;;8.20;6.17;;;;;;;;;;4987976;28;20394;-85
2022/06/11 01:36:01;;;;;;;8.27;6.57;;;;;;;;;;4980990;28;20429;-85
2022/06/11 01:38:54;;;;;;;6.70;5.60;;;;;;;;;;4980696;28;20412;-85
2022/06/11 01:41:42;;;;;;;8.70;5.60;;;;;;;;;;4984438;28;20417;-85
2022/06/11 01:44:13;;;;;;;7.47;5.73;;;;;;;;;;4984908;28;20465;-85
2022/06/11 01:46:41;;;;;;;6.57;5.87;;;;;;;;;;4983264;28;20571;-86
2022/06/11 01:49:23;;;;;;;6.40;5.00;;;;;;;;;;4983706;28;20449;-86
2022/06/11 01:51:55;;;;;;;7.63;6.03;;;;;;;;;;4983127;28;20499;-86
2022/06/11 01:54:24;;;;;;;9.20;5.03;;;;;;;;;;4984516;28;20410;-85
2022/06/11 01:56:53;;;;;;;6.93;4.97;;;;;;;;;;4985266;28;20421;-85
2022/06/11 01:59:27;;;;;;;8.60;5.13;;;;;;;;;;4989085;28;20433;-86
2022/06/11 02:01:56;;;;;;;7.87;6.43;;;;;;;;;;4988781;28;20404;-86
2022/06/11 02:04:41;;;;;;;5.83;5.03;;;;;;;;;;4993646;28;20420;-86
2022/06/11 02:07:13;;;;;;;7.10;6.40;;;;;;;;;;5008846;28;20447;-86
2022/06/11 02:09:39;;;;;;;7.60;5.13;;;;;;;;;;5007888;28;20475;-86
2022/06/11 02:12:31;;;;;;;7.93;5.37;;;;;;;;;;4992603;28;20409;-85
2022/06/11 02:15:03;;;;;;;10.60;5.53;;;;;;;;;;4959236;28;20501;-85
2022/06/11 02:17:31;;;;;;;6.77;4.93;;;;;;;;;;4989180;28;20409;-85
2022/06/11 02:20:29;;;;;;;9.20;5.67;;;;;;;;;;4988632;28;20497;-85
2022/06/11 02:23:01;;;;;;;6.10;5.00;;;;;;;;;;4973501;28;20421;-86
2022/06/11 02:25:30;;;;;;;20.23;6.30;;;;;;;;;;4988820;28;20429;-85
2022/06/11 02:28:00;;;;;;;7.13;5.10;;;;;;;;;;4988439;28;20488;-85
2022/06/11 02:30:27;;;;;;;6.13;4.50;;;;;;;;;;4989098;28;20425;-85
2022/06/11 02:32:53;;;;;;;6.60;4.87;;;;;;;;;;4988824;28;20405;-85
2022/06/11 02:35:38;;;;;;;6.73;4.83;;;;;;;;;;4988048;28;20494;-85
2022/06/11 02:38:05;;;;;;;6.83;4.50;;;;;;;;;;4988790;28;20425;-85
2022/06/11 02:40:33;;;;;;;5.43;4.13;;;;;;;;;;4995872;28;20464;-85
2022/06/11 02:42:59;;;;;;;6.63;4.80;;;;;;;;;;4978558;28;20425;-84
2022/06/11 02:45:25;;;;;;;5.90;5.00;;;;;;;;;;4995437;28;20490;-84
2022/06/11 02:47:52;;;;;;;6.30;4.60;;;;;;;;;;4990792;28;20492;-85
2022/06/11 02:50:21;;;;;;;5.83;5.23;;;;;;;;;;4973425;28;20484;-86
2022/06/11 02:52:47;;;;;;;9.27;4.77;;;;;;;;;;4994192;28;20566;-85
2022/06/11 02:55:13;;;;;;;4.73;4.23;;;;;;;;;;4977357;28;20429;-86
2022/06/11 02:57:39;;;;;;;5.20;4.70;;;;;;;;;;5002292;28;20428;-86
2022/06/11 03:00:06;;;;;;;10.43;4.77;;;;;;;;;;4996830;28;20512;-86
2022/06/11 03:02:32;;;;;;;16.10;6.93;;;;;;;;;;4970534;28;20426;-86
2022/06/11 03:04:58;;;;;;;10.50;5.20;;;;;;;;;;4987732;28;20460;-86
2022/06/11 03:07:25;;;;;;;9.80;7.43;;;;;;;;;;4986943;28;20436;-85
2022/06/11 03:09:51;;;;;;;7.10;6.10;;;;;;;;;;4987737;28;20443;-86
2022/06/11 03:12:17;;;;;;;6.07;5.47;;;;;;;;;;5004366;28;20392;-86
2022/06/11 03:14:43;;;;;;;12.53;6.27;;;;;;;;;;5006963;28;20413;-86
2022/06/11 03:17:11;;;;;;;8.93;6.43;;;;;;;;;;5007025;28;20420;-86
2022/06/11 03:19:37;;;;;;;11.53;6.93;;;;;;;;;;5007138;28;20414;-86
2022/06/11 03:22:03;;;;;;;9.13;6.57;;;;;;;;;;5007883;28;20416;-85
2022/06/11 03:24:29;;;;;;;6.70;5.93;;;;;;;;;;5008744;28;20426;-85
2022/06/11 03:26:56;;;;;;;6.13;5.43;;;;;;;;;;5007391;28;20488;-86
2022/06/11 03:29:22;;;;;;;7.73;6.33;;;;;;;;;;5006311;28;20540;-86
2022/06/11 03:31:48;;;;;;;8.20;5.67;;;;;;;;;;5006729;28;20412;-85
2022/06/11 03:34:15;;;;;;;8.70;5.40;;;;;;;;;;5005497;28;20474;-86
2022/06/11 03:36:42;;;;;;;10.30;6.10;;;;;;;;;;5006405;28;20431;-86
2022/06/11 03:39:08;;;;;;;7.80;5.80;;;;;;;;;;5007267;28;20400;-86
2022/06/11 03:41:34;;;;;;;10.73;6.10;;;;;;;;;;5007125;28;20493;-86
2022/06/11 03:44:00;;;;;;;7.67;6.00;;;;;;;;;;5007185;28;20475;-86
2022/06/11 03:46:28;;;;;;;13.43;7.57;;;;;;;;;;5006671;28;20428;-86
2022/06/11 03:48:55;;;;;;;8.73;5.83;;;;;;;;;;5006594;28;20557;-86
2022/06/11 03:51:22;;;;;;;8.93;5.73;;;;;;;;;;5007271;28;20459;-85
2022/06/11 03:53:48;;;;;;;7.40;5.73;;;;;;;;;;5006661;28;20435;-85
2022/06/11 03:56:14;;;;;;;12.30;5.20;;;;;;;;;;5006751;28;20487;-86
2022/06/11 03:58:41;;;;;;;6.73;4.97;;;;;;;;;;4988869;28;20447;-86
2022/06/11 04:01:16;;;;;;;6.10;4.83;;;;;;;;;;5006633;28;20432;-86
2022/06/11 04:03:54;;;;;;;6.50;4.67;;;;;;;;;;5006875;28;20438;-86
2022/06/11 04:06:24;;;;;;;6.30;4.90;;;;;;;;;;5006693;28;20467;-86
2022/06/11 04:08:50;;;;;;;6.37;5.10;;;;;;;;;;4998694;28;20457;-86
2022/06/11 04:11:20;;;;;;;6.83;5.00;;;;;;;;;;4975483;28;20424;-86
2022/06/11 04:13:46;;;;;;;10.33;6.10;;;;;;;;;;4987617;28;20413;-86
2022/06/11 04:16:38;;;;;;;5.57;4.70;;;;;;;;;;4987183;28;20505;-86
2022/06/11 04:19:05;;;;;;;5.97;4.90;;;;;;;;;;4967804;28;20421;-86
2022/06/11 04:21:32;;;;;;;6.17;4.53;;;;;;;;;;4990476;28;20868;-86
2022/06/11 04:23:59;;;;;;;8.60;4.80;;;;;;;;;;4991945;28;20483;-85
2022/06/11 04:26:32;;;;;;;5.70;4.57;;;;;;;;;;4992098;28;20421;-86
2022/06/11 04:29:00;;;;;;;6.70;5.40;;;;;;;;;;4991426;28;20444;-86
2022/06/11 04:31:26;;;;;;;11.87;5.57;;;;;;;;;;4990761;28;20755;-86
2022/06/11 04:33:52;;;;;;;9.53;5.03;;;;;;;;;;4992506;28;20425;-86
2022/06/11 04:36:20;;;;;;;5.60;4.50;;;;;;;;;;4991451;28;20511;-85
2022/06/11 04:38:46;;;;;;;5.73;3.83;;;;;;;;;;5006737;28;20401;-86
2022/06/11 04:41:13;;;;;;;5.43;4.07;;;;;;;;;;5010777;28;20971;-87
2022/06/11 04:43:39;;;;;;;5.23;4.30;;;;;;;;;;5010186;28;20408;-86
2022/06/11 04:46:05;;;;;;;4.67;4.20;;;;;;;;;;5010402;28;20471;-86
2022/06/11 04:48:32;;;;;;;7.33;4.50;;;;;;;;;;5011457;28;20455;-86
2022/06/11 04:50:58;;;;;;;5.70;4.30;;;;;;;;;;5010234;28;20400;-86
2022/06/11 04:53:24;;;;;;;4.80;4.30;;;;;;;;;;5004493;28;20444;-85
2022/06/11 04:55:51;;;;;;;5.67;4.40;;;;;;;;;;4999270;28;20420;-84
2022/06/11 04:58:17;;;;;;;4.20;3.80;;;;;;;;;;4999922;28;20412;-85
2022/06/11 05:00:43;;;;;;;3.90;3.47;;;;;;;;;;5000041;28;20419;-86
2022/06/11 05:03:09;;;;;;;5.00;4.30;;;;;;;;;;5001094;28;20818;-84
2022/06/11 05:05:36;;;;;;;8.63;3.43;;;;;;;;;;5002406;28;20528;-85
2022/06/11 05:08:02;;;;;;;4.67;3.80;;;;;;;;;;4999811;28;20873;-86
2022/06/11 05:10:30;;;;;;;5.23;4.37;;;;;;;;;;5002287;28;20448;-86
2022/06/11 05:12:56;;;;;;;6.73;4.27;;;;;;;;;;5002705;28;20432;-85
2022/06/11 05:15:23;;;;;;;4.90;3.80;;;;;;;;;;5001499;28;20416;-86
2022/06/11 05:17:52;;;;;;;5.93;4.20;;;;;;;;;;5004426;28;20909;-86
2022/06/11 05:20:18;;;;;;;5.20;4.00;;;;;;;;;;5007204;28;20423;-86
2022/06/11 05:22:45;;;;;;;4.27;3.87;;;;;;;;;;5006836;28;20458;-86
2022/06/11 05:25:11;;;;;;;4.90;4.00;;;;;;;;;;5002605;28;20913;-85
2022/06/11 05:27:40;;;;;;;4.10;3.70;;;;;;;;;;5004263;28;20419;-86
2022/06/11 05:30:15;;;;;;;8.17;3.70;;;;;;;;;;5001863;28;20408;-87
2022/06/11 05:32:41;;;;;;;5.53;3.70;;;;;;;;;;5002708;28;20380;-87
2022/06/11 05:35:08;;;;;;;4.77;3.57;;;;;;;;;;5003730;28;20428;-86
2022/06/11 05:37:35;;;;;;;4.13;3.20;;;;;;;;;;5003562;28;20407;-86
2022/06/11 05:40:01;;;;;;;9.83;3.73;;;;;;;;;;5003737;28;20446;-86
2022/06/11 05:42:27;;;;;;;4.07;3.13;;;;;;;;;;4984418;28;20820;-85
2022/06/11 05:44:53;;;;;;;4.50;3.37;;;;;;;;;;5003648;28;20396;-85
2022/06/11 05:47:22;;;;;;;4.00;3.20;;;;;;;;;;5003351;28;20769;-86
2022/06/11 05:49:55;;;;;;;3.77;3.00;;;;;;;;;;5002333;28;20456;-85
2022/06/11 05:52:24;;;;;;;8.50;2.87;;;;;;;;;;5003792;28;20432;-86
2022/06/11 05:54:51;;;;;;;6.40;3.13;;;;;;;;;;5004099;28;20439;-86
2022/06/11 05:57:20;;;;;;;4.50;3.30;;;;;;;;;;4986080;28;20412;-86
2022/06/11 05:59:48;;;;;;;5.33;3.47;;;;;;;;;;5004233;28;20401;-86
2022/06/11 06:02:16;;;;;;;4.50;2.90;;;;;;;;;;5003615;28;20447;-86
2022/06/11 06:04:42;;;;;;;5.10;3.70;;;;;;;;;;5003696;28;20408;-86
2022/06/11 06:07:09;;;;;;;4.30;2.90;;;;;;;;;;5004332;28;20519;-87
2022/06/11 06:09:35;;;;;;;5.20;3.30;;;;;;;;;;4997795;28;20461;-86
2022/06/11 06:12:04;;;;;;;4.00;2.70;;;;;;;;;;5000344;28;20408;-87
2022/06/11 06:14:30;;;;;;;3.80;3.33;;;;;;;;;;5004891;28;20762;-86
2022/06/11 06:16:56;;;;;;;4.40;3.10;;;;;;;;;;5001219;28;20440;-86
2022/06/11 06:19:22;;;;;;;6.27;2.80;;;;;;;;;;5002465;28;20408;-86
2022/06/11 06:21:49;;;;;;;5.80;3.07;;;;;;;;;;5002311;28;20929;-86
2022/06/11 06:24:15;;;;;;;3.63;2.93;;;;;;;;;;5002048;28;20780;-86
2022/06/11 06:26:41;;;;;;;6.47;3.30;;;;;;;;;;5001484;28;20467;-86
2022/06/11 06:29:10;;;;;;;5.50;3.50;;;;;;;;;;5002418;28;20471;-87
2022/06/11 06:31:37;;;;;;;3.87;2.87;;;;;;;;;;5001890;28;20428;-86
2022/06/11 06:34:03;;;;;;;4.10;2.70;;;;;;;;;;5001290;28;20479;-86
2022/06/11 06:36:30;;;;;;;3.20;2.50;;;;;;;;;;5002272;28;20420;-85
2022/06/11 06:38:56;;;;;;;5.83;2.80;;;;;;;;;;5002464;28;20451;-86
2022/06/11 06:41:23;;;;;;;3.07;2.77;;;;;;;;;;5002153;28;20409;-86
2022/06/11 06:43:49;;;;;;;3.93;3.23;;;;;;;;;;4986086;28;20409;-87
2022/06/11 06:46:16;;;;;;;4.23;2.67;;;;;;;;;;5003440;28;20428;-86
2022/06/11 06:48:43;;;;;;;3.57;2.80;;;;;;;;;;5003003;28;20478;-86
2022/06/11 06:51:10;;;;;;;5.20;2.60;;;;;;;;;;5002756;28;20492;-86
2022/06/11 06:53:37;;;;;;;4.73;2.53;;;;;;;;;;5002368;28;20409;-86
2022/06/11 06:56:03;;;;;;;3.37;2.53;;;;;;;;;;5002453;28;20470;-86
2022/06/11 06:58:29;;;;;;;6.23;2.63;;;;;;;;;;5004484;28;20420;-87
2022/06/11 07:00:55;;;;;;;7.10;3.10;;;;;;;;;;5004322;28;20408;-87
2022/06/11 07:03:21;;;;;;;6.80;3.23;;;;;;;;;;5004820;28;20440;-87
2022/06/11 07:05:50;;;;;;;4.10;2.50;;;;;;;;;;5004127;28;20948;-86
2022/06/11 07:08:16;;;;;;;5.07;3.20;;;;;;;;;;4999420;28;20461;-86
2022/06/11 07:10:50;;;;;;;3.30;2.87;;;;;;;;;;4970346;28;20420;-87
2022/06/11 07:13:17;;;;;;;6.23;2.83;;;;;;;;;;5004121;28;20543;-86
2022/06/11 07:15:44;;;;;;;4.47;2.83;;;;;;;;;;5004303;28;20426;-86
2022/06/11 07:18:19;;;;;;;2.60;2.40;;;;;;;;;;5004659;28;20414;-87
2022/06/11 07:20:46;;;;;;;3.23;2.50;;;;;;;;;;4986733;28;20479;-87
2022/06/11 07:23:23;;;;;;;3.63;2.83;;;;;;;;;;5003728;28;20413;-87
2022/06/11 07:25:50;;;;;;;3.10;2.47;;;;;;;;;;5003895;28;20420;-86
2022/06/11 07:28:20;;;;;;;5.33;2.53;;;;;;;;;;5002510;28;20444;-87
2022/06/11 07:30:46;;;;;;;4.83;2.80;;;;;;;;;;5002393;28;20400;-87
2022/06/11 07:33:14;;;;;;;4.93;2.63;;;;;;;;;;5002785;28;20423;-88
2022/06/11 07:35:40;;;;;;;3.33;2.37;;;;;;;;;;5003453;28;20436;-86
2022/06/11 07:38:09;;;;;;;5.87;2.63;;;;;;;;;;5002723;28;20472;-86
2022/06/11 07:40:35;;;;;;;5.90;2.67;;;;;;;;;;5000037;28;20452;-86
2022/06/11 07:43:01;;;;;;;3.43;2.23;;;;;;;;;;4983088;28;20405;-87
2022/06/11 07:45:27;;;;;;;4.43;2.80;;;;;;;;;;4983395;28;20429;-86
2022/06/11 07:47:53;;;;;;;3.77;2.70;;;;;;;;;;4983137;28;20449;-87
2022/06/11 07:50:22;;;;;;;3.80;2.30;;;;;;;;;;4983623;28;20401;-86
2022/06/11 07:52:48;;;;;;;3.80;2.77;;;;;;;;;;4983291;28;20436;-86
2022/06/11 07:55:14;;;;;;;4.67;2.87;;;;;;;;;;4983856;28;20437;-87
2022/06/11 07:57:40;;;;;;;3.90;2.80;;;;;;;;;;4983574;28;20777;-87
2022/06/11 08:00:08;;;;;;;3.63;2.60;;;;;;;;;;4982511;28;20408;-85
2022/06/11 08:02:34;;;;;;;4.13;2.73;;;;;;;;;;4981839;28;20966;-87
2022/06/11 08:05:00;;;;;;;5.63;2.70;;;;;;;;;;4983340;28;20412;-87
2022/06/11 08:07:27;;;;;;;6.20;3.00;;;;;;;;;;4979912;28;20956;-85
2022/06/11 08:09:56;;;;;;;3.23;2.30;;;;;;;;;;4976171;28;20552;-85
2022/06/11 08:12:22;;;;;;;4.03;2.70;;;;;;;;;;4991918;28;20431;-85
2022/06/11 08:14:48;;;;;;;4.20;3.00;;;;;;;;;;4996100;28;20392;-85
2022/06/11 08:17:14;;;;;;;3.83;3.00;;;;;;;;;;5011248;28;20915;-85
2022/06/11 08:19:40;;;;;;;3.60;2.37;;;;;;;;;;4996236;28;20411;-85
2022/06/11 08:22:06;;;;;;;2.90;2.50;;;;;;;;;;4996886;28;20404;-87
2022/06/11 08:24:32;;;;;;;3.50;2.80;;;;;;;;;;4996042;28;20463;-86
2022/06/11 08:26:58;;;;;;;3.63;2.40;;;;;;;;;;4996149;28;20440;-85
2022/06/11 08:29:24;;;;;;;3.17;2.40;;;;;;;;;;4998539;28;20464;-87
2022/06/11 08:31:50;;;;;;;3.60;2.23;;;;;;;;;;4979820;28;20479;-86
2022/06/11 08:34:17;;;;;;;3.90;2.20;;;;;;;;;;4998385;28;20905;-86
2022/06/11 08:36:47;;;;;;;3.50;2.73;;;;;;;;;;4996358;28;20482;-86
2022/06/11 08:39:16;;;;;;;3.07;1.90;;;;;;;;;;4986294;28;20420;-86
2022/06/11 08:41:42;;;;;;;4.03;2.47;;;;;;;;;;4995532;28;20893;-85
2022/06/11 08:44:10;;;;;;;3.90;2.33;;;;;;;;;;4996506;28;20554;-85
2022/06/11 08:46:37;;;;;;;4.23;2.73;;;;;;;;;;4995535;28;20459;-86
2022/06/11 08:49:22;;;;;;;4.50;2.83;;;;;;;;;;4982017;28;20444;-87
2022/06/11 08:51:51;;;;;;;2.70;2.23;;;;;;;;;;4993449;28;20439;-87
2022/06/11 08:54:19;;;;;;;3.30;2.50;;;;;;;;;;4996524;28;20435;-85
2022/06/11 08:56:51;;;;;;;2.83;1.93;;;;;;;;;;4991436;28;20456;-86
2022/06/11 08:59:29;;;;;;;3.53;2.37;;;;;;;;;;4998801;28;20435;-86
2022/06/11 09:01:58;;;;;;;4.30;2.37;;;;;;;;;;5000112;28;20427;-86
2022/06/11 09:04:28;;;;;;;3.27;2.00;;;;;;;;;;5010781;28;20919;-86
2022/06/11 09:07:14;;;;;;;3.33;2.00;;;;;;;;;;5001202;28;20468;-86
2022/06/11 09:09:40;;;;;;;4.90;2.50;;;;;;;;;;4969845;28;20490;-86
2022/06/11 09:12:18;;;;;;;7.70;2.50;;;;;;;;;;5004603;28;20428;-84
2022/06/11 09:14:50;;;;;;;7.07;2.90;;;;;;;;;;4996001;28;20428;-88
2022/06/11 09:17:25;;;;;;;3.13;2.43;;;;;;;;;;5002875;28;20423;-85
2022/06/11 09:20:07;;;;;;;4.57;2.37;;;;;;;;;;5004672;28;20423;-85
2022/06/11 09:22:52;;;;;;;4.50;2.43;;;;;;;;;;4985868;28;20417;-86
2022/06/11 09:25:35;;;;;;;2.90;2.30;;;;;;;;;;5000550;28;20460;-87
2022/06/11 09:28:13;;;;;;;3.93;2.73;;;;;;;;;;5004339;28;20460;-85
2022/06/11 09:30:47;;;;;;;2.80;2.37;;;;;;;;;;5003080;28;20420;-86
2022/06/11 09:33:20;;;;;;;7.03;2.47;;;;;;;;;;5003406;28;20423;-86
2022/06/11 09:35:56;;;;;;;2.93;2.17;;;;;;;;;;5004666;28;20459;-85
2022/06/11 09:38:25;;;;;;;3.10;2.50;;;;;;;;;;5001349;28;20418;-85
2022/06/11 09:40:55;;;;;;;3.70;2.63;;;;;;;;;;4988441;28;20514;-85
2022/06/11 09:43:34;;;;;;;3.00;2.40;;;;;;;;;;5004623;28;20420;-86
2022/06/11 09:46:19;;;;;;;2.93;2.60;;;;;;;;;;5003313;28;20428;-87
2022/06/11 09:49:04;;;;;;;5.37;2.10;;;;;;;;;;5001449;28;20495;-86
2022/06/11 09:51:44;;;;;;;3.33;2.17;;;;;;;;;;5005343;28;20776;-84
2022/06/11 09:54:29;;;;;;;4.43;2.40;;;;;;;;;;5004139;28;20395;-86
2022/06/11 09:57:01;;;;;;;3.33;2.70;;;;;;;;;;5003071;28;20546;-86
2022/06/11 09:59:27;;;;;;;3.23;2.10;;;;;;;;;;5003875;28;20435;-86
2022/06/11 10:01:57;;;;;;;5.40;2.80;;;;;;;;;;5004440;28;20442;-85
2022/06/11 10:04:27;;;;;;;3.93;2.87;;;;;;;;;;5003804;28;20416;-84
2022/06/11 10:06:54;;;;;;;3.13;2.33;;;;;;;;;;5000784;28;20482;-87
2022/06/11 10:09:23;;;;;;;3.90;2.50;;;;;;;;;;5000449;28;20447;-86
2022/06/11 10:12:12;;;;;;;4.73;3.00;;;;;;;;;;4986093;28;20459;-86
2022/06/11 10:14:42;;;;;;;3.17;2.33;;;;;;;;;;4959732;28;20432;-85
2022/06/11 10:17:09;;;;;;;4.73;2.70;;;;;;;;;;4996247;28;20439;-85
2022/06/11 10:19:41;;;;;;;2.80;2.40;;;;;;;;;;5002273;28;20448;-85
2022/06/11 10:22:07;;;;;;;3.67;2.60;;;;;;;;;;4975453;28;20475;-86
2022/06/11 10:24:34;;;;;;;3.30;2.60;;;;;;;;;;5002413;28;20427;-86
2022/06/11 10:27:06;;;;;;;4.20;2.83;;;;;;;;;;5002449;28;20494;-86
2022/06/11 10:29:33;;;;;;;4.50;2.63;;;;;;;;;;4966941;28;20461;-86
2022/06/11 10:32:08;;;;;;;3.47;2.70;;;;;;;;;;4994846;28;20420;-87
2022/06/11 10:34:37;;;;;;;3.67;2.70;;;;;;;;;;4985063;28;20424;-86
2022/06/11 10:37:08;;;;;;;3.73;2.50;;;;;;;;;;5002007;28;20436;-86
2022/06/11 10:39:34;;;;;;;3.97;2.40;;;;;;;;;;4984884;28;20416;-86
2022/06/11 10:42:00;;;;;;;3.57;2.40;;;;;;;;;;5002125;28;20427;-87
2022/06/11 10:44:53;;;;;;;2.93;2.47;;;;;;;;;;4985076;28;20501;-86
2022/06/11 10:47:21;;;;;;;4.87;3.17;;;;;;;;;;4981254;28;20448;-87
2022/06/11 10:49:50;;;;;;;3.40;2.50;;;;;;;;;;4986233;28;20553;-87
2022/06/11 10:52:25;;;;;;;4.00;2.40;;;;;;;;;;5001627;28;20400;-87
2022/06/11 10:54:51;;;;;;;4.00;2.37;;;;;;;;;;4991012;28;20411;-87
2022/06/11 10:57:24;;;;;;;4.93;2.60;;;;;;;;;;5001317;28;20444;-86
2022/06/11 10:59:52;;;;;;;2.97;2.37;;;;;;;;;;5000293;28;20908;-86
2022/06/11 11:02:21;;;;;;;2.93;2.33;;;;;;;;;;5000815;28;20443;-87
2022/06/11 11:05:02;;;;;;;3.47;2.70;;;;;;;;;;5000417;28;20448;-87
2022/06/11 11:07:41;;;;;;;3.13;2.27;;;;;;;;;;5025796;23;20495;-83
2022/06/11 11:10:18;;;;;;;5.47;2.80;;;;;;;;;;5007179;28;20431;-85
2022/06/11 11:12:44;;;;;;;3.60;2.10;;;;;;;;;;5010296;28;20782;-86
2022/06/11 11:15:10;;;;;;;3.80;2.90;;;;;;;;;;5020548;28;20391;-86
2022/06/11 11:17:43;;;;;;;3.83;2.30;;;;;;;;;;5019498;28;20449;-86
2022/06/11 11:20:30;;;;;;;3.27;2.50;;;;;;;;;;5021291;28;20420;-83
2022/06/11 11:22:57;;;;;;;3.50;2.30;;;;;;;;;;5002921;28;20861;-84
2022/06/11 11:25:33;;;;;;;5.80;3.00;;;;;;;;;;5005045;28;20400;-86
2022/06/11 11:27:59;;;;;;;6.87;3.10;;;;;;;;;;5004783;28;20521;-86
2022/06/11 11:30:25;;;;;;;7.60;3.30;;;;;;;;;;5024844;28;20411;-85
2022/06/11 11:32:52;;;;;;;3.33;2.70;;;;;;;;;;5024719;28;20419;-86
2022/06/11 11:35:18;;;;;;;3.10;2.50;;;;;;;;;;5023937;28;20950;-87
2022/06/11 11:37:44;;;;;;;3.63;2.60;;;;;;;;;;5023375;28;20439;-86
2022/06/11 11:40:29;;;;;;;4.00;2.53;;;;;;;;;;5006007;28;20451;-87
2022/06/11 11:43:02;;;;;;;6.43;2.77;;;;;;;;;;5029772;28;20451;-87
2022/06/11 11:45:40;;;;;;;4.43;2.10;;;;;;;;;;5025462;28;20503;-87
2022/06/11 11:48:07;;;;;;;6.83;2.77;;;;;;;;;;5001775;28;20478;-87
2022/06/11 11:50:37;;;;;;;4.30;2.93;;;;;;;;;;5002860;28;20423;-88
2022/06/11 11:53:06;;;;;;;3.73;2.30;;;;;;;;;;4998054;28;20466;-87
2022/06/11 11:55:34;;;;;;;5.17;2.60;;;;;;;;;;4997929;28;20787;-84
2022/06/11 11:58:00;;;;;;;3.00;2.50;;;;;;;;;;4998883;28;20570;-84
2022/06/11 12:00:29;;;;;;;3.50;2.87;;;;;;;;;;5016811;28;20411;-86
2022/06/11 12:02:57;;;;;;;6.27;3.00;;;;;;;;;;4999531;28;20411;-87
2022/06/11 12:05:24;;;;;;;3.00;2.30;;;;;;;;;;5000179;28;20467;-85
2022/06/11 12:07:52;;;;;;;4.43;2.87;;;;;;;;;;5022237;28;20462;-86
2022/06/11 12:10:18;;;;;;;7.73;2.30;;;;;;;;;;5019675;28;20428;-87
2022/06/11 12:12:48;;;;;;;3.70;2.47;;;;;;;;;;5018537;28;20415;-87
2022/06/11 12:15:16;;;;;;;3.60;1.97;;;;;;;;;;5018876;28;20427;-86
2022/06/11 12:17:50;;;;;;;6.17;2.50;;;;;;;;;;5019773;28;20438;-87
2022/06/11 12:20:37;;;;;;;3.73;2.30;;;;;;;;;;5004192;28;20475;-86
2022/06/11 12:23:26;;;;;;;3.00;1.90;;;;;;;;;;4993639;28;20428;-87
2022/06/11 12:25:57;;;;;;;4.23;2.37;;;;;;;;;;5020814;28;20415;-86
2022/06/11 12:28:29;;;;;;;3.50;1.83;;;;;;;;;;5036673;28;20525;-86
2022/06/11 12:30:55;;;;;;;2.70;1.97;;;;;;;;;;5004670;28;20993;-85
2022/06/11 12:33:24;;;;;;;2.83;2.13;;;;;;;;;;5021321;28;20514;-89
2022/06/11 12:35:56;;;;;;;2.63;2.23;;;;;;;;;;5020700;28;20436;-87
2022/06/11 12:38:33;;;;;;;6.60;2.67;;;;;;;;;;5001622;28;20490;-87
2022/06/11 12:41:35;;;;;;;7.10;2.53;;;;;;;;;;4998759;28;20420;-86
2022/06/11 12:44:01;;;;;;;2.93;1.87;;;;;;;;;;4926455;29;20419;-87
2022/06/11 12:46:40;;;;;;;5.93;2.37;;;;;;;;;;4976125;28;20437;-87
2022/06/11 12:49:10;;;;;;;3.47;2.13;;;;;;;;;;5020694;28;20959;-87
2022/06/11 12:51:47;;;;;;;3.40;2.27;;;;;;;;;;5001712;28;20431;-87
2022/06/11 12:54:17;;;;;;;3.97;2.20;;;;;;;;;;5004194;28;20433;-87
2022/06/11 12:57:02;;;;;;;2.70;2.00;;;;;;;;;;5004781;28;20431;-88
2022/06/11 12:59:34;;;;;;;4.00;2.10;;;;;;;;;;4996430;28;20920;-87
2022/06/11 13:02:16;;;;;;;3.97;2.10;;;;;;;;;;5014555;28;20446;-87
2022/06/11 13:04:42;;;;;;;6.30;2.10;;;;;;;;;;5005117;28;20477;-86
2022/06/11 13:07:24;;;;;;;2.83;2.07;;;;;;;;;;5021822;28;20458;-86
2022/06/11 13:10:15;;;;;;;3.20;2.23;;;;;;;;;;5031982;28;20501;-85
2022/06/11 13:12:42;;;;;;;2.47;1.67;;;;;;;;;;5038336;28;20422;-87
2022/06/11 13:15:23;;;;;;;2.83;2.00;;;;;;;;;;5035898;28;20449;-87
2022/06/11 13:17:59;;;;;;;3.50;2.17;;;;;;;;;;5035142;28;20494;-86
2022/06/11 13:20:44;;;;;;;4.50;2.40;;;;;;;;;;5017696;28;20418;-86
2022/06/11 13:23:13;;;;;;;4.20;2.40;;;;;;;;;;5019101;28;20434;-87
2022/06/11 13:25:43;;;;;;;3.33;2.10;;;;;;;;;;5032029;28;20618;-87
2022/06/11 13:28:15;;;;;;;3.13;2.13;;;;;;;;;;5008225;28;20459;-87
2022/06/11 13:31:03;;;;;;;4.57;1.73;;;;;;;;;;5006586;28;20416;-87
2022/06/11 13:33:48;;;;;;;3.60;2.40;;;;;;;;;;5023259;28;20388;-87
2022/06/11 13:36:16;;;;;;;3.70;1.80;;;;;;;;;;5023412;28;20419;-87
2022/06/11 13:39:01;;;;;;;3.43;2.00;;;;;;;;;;5021564;28;20403;-87
2022/06/11 13:41:41;;;;;;;3.07;1.80;;;;;;;;;;5028675;28;20415;-87
2022/06/11 13:44:14;;;;;;;2.43;1.63;;;;;;;;;;5025003;28;20450;-87
2022/06/11 13:46:43;;;;;;;3.10;1.97;;;;;;;;;;5021296;28;20422;-86
2022/06/11 13:49:15;;;;;;;2.77;2.10;;;;;;;;;;5002503;28;20466;-86
2022/06/11 13:51:44;;;;;;;3.60;2.80;;;;;;;;;;5019091;28;20403;-87
2022/06/11 13:57:19;;;;;;;2.87;1.90;;;;;;;;;;5021267;28;20792;-87
2022/06/11 14:00:04;;;;;;;2.30;1.77;;;;;;;;;;5002713;28;20415;-88
2022/06/11 14:02:33;;;;;;;5.43;2.40;;;;;;;;;;5012473;28;20543;-86
2022/06/11 14:05:01;;;;;;;2.73;1.80;;;;;;;;;;4992665;28;20448;-86
2022/06/11 14:07:28;;;;;;;3.10;2.30;;;;;;;;;;5008651;28;20463;-86
2022/06/11 14:10:33;;;;;;;3.53;1.90;;;;;;;;;;5001076;28;20510;-86
2022/06/11 14:13:03;;;;;;;3.40;1.90;;;;;;;;;;4941014;29;20425;-86
2022/06/11 14:15:34;;;;;;;3.53;2.13;;;;;;;;;;4957770;29;20425;-86
2022/06/11 14:18:06;;;;;;;2.90;1.50;;;;;;;;;;4991094;28;20975;-86
2022/06/11 14:20:35;;;;;;;2.33;1.60;;;;;;;;;;5018528;28;20443;-86
2022/06/11 14:23:02;;;;;;;3.30;1.93;;;;;;;;;;5002444;28;20424;-86
2022/06/11 14:25:47;;;;;;;2.93;1.47;;;;;;;;;;5001812;28;20980;-87
2022/06/11 14:28:16;;;;;;;2.70;1.57;;;;;;;;;;5022326;28;20451;-87
2022/06/11 14:30:48;;;;;;;3.37;2.20;;;;;;;;;;5018737;28;20415;-86
2022/06/11 14:33:15;;;;;;;2.90;1.50;;;;;;;;;;5018517;28;20914;-86
2022/06/11 14:35:50;;;;;;;2.90;1.80;;;;;;;;;;5018424;28;20474;-86
2022/06/11 14:38:24;;;;;;;2.60;1.43;;;;;;;;;;5001894;28;20780;-87
2022/06/11 14:40:51;;;;;;;2.40;1.80;;;;;;;;;;5018366;28;20419;-87
2022/06/11 14:43:19;;;;;;;2.97;1.80;;;;;;;;;;4999091;28;20424;-87
2022/06/11 14:45:48;;;;;;;3.40;1.70;;;;;;;;;;4997810;28;20423;-87
2022/06/11 14:48:23;;;;;;;2.43;1.67;;;;;;;;;;4996785;28;20455;-86
2022/06/11 14:51:11;;;;;;;2.50;1.40;;;;;;;;;;5018279;28;20415;-87
2022/06/11 14:53:47;;;;;;;2.30;1.50;;;;;;;;;;5000065;28;20931;-87
2022/06/11 14:56:14;;;;;;;2.40;1.53;;;;;;;;;;5017914;28;20505;-87
2022/06/11 14:58:59;;;;;;;2.60;1.50;;;;;;;;;;5000538;28;20459;-87
2022/06/11 15:01:51;;;;;;;2.80;1.53;;;;;;;;;;4999096;28;20473;-87
2022/06/11 15:04:39;;;;;;;2.30;1.40;;;;;;;;;;5017125;28;20400;-87
2022/06/11 15:07:24;;;;;;;1.90;1.33;;;;;;;;;;5035426;28;20451;-87